Giorgis Manos — SW4401 — position and weather

sailwx.info

Track history (hours):
 
Tides and Currents Weather Stations Pressure Air Temp Water Temp Dewpoint Dewpoint Depression Visibility Wind Speed Wind Dir Waves Ship Positions

Giorgis Manos

Last reported at 2018-Jun-07 19:32 UTC. Time now 2018-Jun-20 17:28 UTC.
Position N 40°28' E 024°07'.
Warning: this ship's position is 12 days out of date.

Length 24 m; draft 3.5 m.

Type: Fishing. MMSI: 240250000.

Date/timePositionNaut miles runAvg speedWind from/ knotsBaromVisibWave heightAir tempDewpointWater temp
2018-Jun-07 19:32N 40°28' E 024°07'0 0.0
2018-Jun-07 19:30N 40°28' E 024°07'0 0.0
2018-Jun-07 19:00N 40°28' E 024°07'0 0.0
2018-Jun-07 18:30N 40°28' E 024°07'0 0.6
2018-Jun-07 17:58N 40°28' E 024°07'1 1.8
2018-Jun-07 17:30N 40°28' E 024°06'5 9.3
2018-Jun-07 16:59N 40°27' E 023°59'4 8.7
2018-Jun-07 16:30N 40°25' E 023°55'11 0.8
2018-Jun-07 02:02N 40°27' E 024°09'0 0.5
2018-Jun-07 01:37N 40°27' E 024°09'0 0.1
2018-Jun-07 01:28N 40°27' E 024°09'0 0.1
2018-Jun-06 21:35N 40°27' E 024°09'0 0.4
2018-Jun-06 21:27N 40°27' E 024°09'0 0.3
2018-Jun-06 20:43N 40°27' E 024°10'0 0.5
2018-Jun-06 20:30N 40°27' E 024°10'1 1.2
2018-Jun-06 19:56N 40°26' E 024°10'0 0.0
2018-Jun-06 19:30N 40°26' E 024°10'0 0.0
2018-Jun-06 19:00N 40°26' E 024°10'0 0.0
2018-Jun-06 18:30N 40°26' E 024°10'0 0.7
2018-Jun-06 17:59N 40°27' E 024°10'2 4.0
2018-Jun-06 17:30N 40°28' E 024°08'4 8.2
2018-Jun-06 17:00N 40°28' E 024°03'4 8.9
2018-Jun-06 16:31N 40°26' E 023°58'12 0.7
2018-Jun-05 22:21N 40°31' E 024°12'0 0.2
2018-Jun-05 21:16N 40°31' E 024°12'0 1.2
2018-Jun-05 20:57N 40°31' E 024°12'0 0.3
2018-Jun-05 20:30N 40°31' E 024°12'0 0.0
2018-Jun-05 19:58N 40°31' E 024°12'0 0.0
2018-Jun-05 19:30N 40°31' E 024°12'0 0.0
2018-Jun-05 19:00N 40°31' E 024°12'0 0.0
2018-Jun-05 18:30N 40°31' E 024°12'0 0.1
2018-Jun-05 18:00N 40°31' E 024°12'1 1.2
2018-Jun-05 17:26N 40°31' E 024°12'2 4.7
2018-Jun-05 17:00N 40°30' E 024°10'4 7.8
2018-Jun-05 16:30N 40°26' E 024°08'510.3
2018-Jun-05 16:00N 40°22' E 024°13'510.2
2018-Jun-05 15:30N 40°18' E 024°17'510.1
2018-Jun-05 15:00N 40°14' E 024°21'5 9.8
2018-Jun-05 14:30N 40°10' E 024°24'5 9.4
2018-Jun-05 13:56N 40°06' E 024°20'410.2
2018-Jun-05 13:30N 40°03' E 024°15'510.2
2018-Jun-05 13:00N 40°01' E 024°09'510.7
2018-Jun-05 12:30N 39°58' E 024°03'  
Track history (hours):
 
Tides and Currents Weather Stations Pressure Air Temp Water Temp Dewpoint Dewpoint Depression Visibility Wind Speed Wind Dir Waves Ship Positions

Giorgis Manos

Last reported at 2018-Jun-07 19:32 UTC. Time now 2018-Jun-20 17:28 UTC.
Position N 40°28' E 024°07'.
Warning: this ship's position is 12 days out of date.

Length 24 m; draft 3.5 m.

Type: Fishing. MMSI: 240250000.

Date/timePositionNaut miles runAvg speedWind from/ knotsBaromVisibWave heightAir tempDewpointWater temp
2018-Jun-07 19:32N 40°28' E 024°07'0 0.0
2018-Jun-07 19:30N 40°28' E 024°07'0 0.0
2018-Jun-07 19:00N 40°28' E 024°07'0 0.0
2018-Jun-07 18:30N 40°28' E 024°07'0 0.6
2018-Jun-07 17:58N 40°28' E 024°07'1 1.8
2018-Jun-07 17:30N 40°28' E 024°06'5 9.3
2018-Jun-07 16:59N 40°27' E 023°59'4 8.7
2018-Jun-07 16:30N 40°25' E 023°55'11 0.8
2018-Jun-07 02:02N 40°27' E 024°09'0 0.5
2018-Jun-07 01:37N 40°27' E 024°09'0 0.1
2018-Jun-07 01:28N 40°27' E 024°09'0 0.1
2018-Jun-06 21:35N 40°27' E 024°09'0 0.4
2018-Jun-06 21:27N 40°27' E 024°09'0 0.3
2018-Jun-06 20:43N 40°27' E 024°10'0 0.5
2018-Jun-06 20:30N 40°27' E 024°10'1 1.2
2018-Jun-06 19:56N 40°26' E 024°10'0 0.0
2018-Jun-06 19:30N 40°26' E 024°10'0 0.0
2018-Jun-06 19:00N 40°26' E 024°10'0 0.0
2018-Jun-06 18:30N 40°26' E 024°10'0 0.7
2018-Jun-06 17:59N 40°27' E 024°10'2 4.0
2018-Jun-06 17:30N 40°28' E 024°08'4 8.2
2018-Jun-06 17:00N 40°28' E 024°03'4 8.9
2018-Jun-06 16:31N 40°26' E 023°58'12 0.7
2018-Jun-05 22:21N 40°31' E 024°12'0 0.2
2018-Jun-05 21:16N 40°31' E 024°12'0 1.2
2018-Jun-05 20:57N 40°31' E 024°12'0 0.3
2018-Jun-05 20:30N 40°31' E 024°12'0 0.0
2018-Jun-05 19:58N 40°31' E 024°12'0 0.0
2018-Jun-05 19:30N 40°31' E 024°12'0 0.0
2018-Jun-05 19:00N 40°31' E 024°12'0 0.0
2018-Jun-05 18:30N 40°31' E 024°12'0 0.1
2018-Jun-05 18:00N 40°31' E 024°12'1 1.2
2018-Jun-05 17:26N 40°31' E 024°12'2 4.7
2018-Jun-05 17:00N 40°30' E 024°10'4 7.8
2018-Jun-05 16:30N 40°26' E 024°08'510.3
2018-Jun-05 16:00N 40°22' E 024°13'510.2
2018-Jun-05 15:30N 40°18' E 024°17'510.1
2018-Jun-05 15:00N 40°14' E 024°21'5 9.8
2018-Jun-05 14:30N 40°10' E 024°24'5 9.4
2018-Jun-05 13:56N 40°06' E 024°20'410.2
2018-Jun-05 13:30N 40°03' E 024°15'510.2
2018-Jun-05 13:00N 40°01' E 024°09'510.7
2018-Jun-05 12:30N 39°58' E 024°03'  

Dump ship's entire track history